Time;durP1;ratioP1;P1;durP2;ratioP2;P2;SDS_P1;SDS_P2;PMS_P1;PMS_P2;Temp;Humidity;BMP_temperature;BMP_pressure;BME280_temperature;BME280_humidity;BME280_pressure;Samples;Min_cycle;Max_cycle;Signal;HPM_P1;HPM_P2
2021/08/16 00:00:43;;;;;;;13.00;4.10;;;17.90;99.90;;;16.83;82.50;100393.13;5070677;28;20051;-76
2021/08/16 00:03:09;;;;;;;9.52;3.45;;;17.90;99.90;;;16.81;82.60;100397.72;5044284;28;20513;-76
2021/08/16 00:05:36;;;;;;;8.68;3.20;;;17.80;99.90;;;16.74;83.20;100375.22;5060736;28;20384;-76
2021/08/16 00:08:08;;;;;;;8.45;4.70;;;17.80;99.90;;;16.70;83.27;100371.94;5053923;28;20033;-76
2021/08/16 00:10:35;;;;;;;9.32;3.95;;;17.80;99.90;;;16.69;83.42;100364.91;5069022;28;20531;-76
2021/08/16 00:13:02;;;;;;;10.05;4.30;;;17.70;99.90;;;16.64;84.18;100350.28;5059033;28;20029;-76
2021/08/16 00:15:29;;;;;;;11.88;4.10;;;17.70;99.90;;;16.54;84.50;100351.03;5069458;28;20036;-76
2021/08/16 00:17:59;;;;;;;7.28;4.10;;;17.60;99.90;;;16.49;84.78;100361.13;5059137;28;20111;-76
2021/08/16 00:20:26;;;;;;;9.82;3.60;;;17.60;99.90;;;16.42;85.28;100351.13;5068724;28;22807;-76
2021/08/16 00:22:53;;;;;;;9.73;4.00;;;17.50;99.90;;;16.38;85.01;100345.19;5058181;28;20028;-76
2021/08/16 00:25:19;;;;;;;10.23;4.13;;;17.50;99.90;;;16.31;85.04;100334.19;5048159;28;20158;-76
2021/08/16 00:27:45;;;;;;;16.55;4.10;;;17.40;99.90;;;16.37;85.30;100343.47;5059329;28;20029;-76
2021/08/16 00:30:12;;;;;;;12.18;3.97;;;17.50;99.90;;;16.38;84.89;100346.03;5070727;28;20025;-76
2021/08/16 00:32:39;;;;;;;11.93;4.03;;;17.40;99.90;;;16.33;85.36;100329.59;5061366;28;20032;-76
2021/08/16 00:35:05;;;;;;;9.02;4.07;;;17.40;99.90;;;16.31;85.42;100322.72;5051419;28;20031;-76
2021/08/16 00:37:31;;;;;;;9.95;3.55;;;17.40;99.90;;;16.28;85.67;100313.16;5069923;28;20546;-76
2021/08/16 00:39:57;;;;;;;12.10;3.95;;;17.40;99.90;;;16.19;85.57;100309.41;5075614;28;20036;-76
2021/08/16 00:42:24;;;;;;;9.38;3.90;;;17.30;99.90;;;16.12;85.88;100300.22;5053701;28;20044;-76
2021/08/16 00:44:50;;;;;;;8.13;3.92;;;17.20;99.90;;;16.04;86.61;100302.59;5069447;28;20525;-76
2021/08/16 00:47:18;;;;;;;9.45;4.50;;;17.10;99.90;;;15.95;86.92;100282.06;5069794;28;20119;-76
2021/08/16 00:49:45;;;;;;;9.00;3.65;;;17.10;99.90;;;15.86;86.96;100269.50;5068196;28;20392;-76
2021/08/16 00:52:11;;;;;;;11.57;3.97;;;17.00;99.90;;;15.77;87.04;100265.75;5059667;28;20499;-76
2021/08/16 00:54:38;;;;;;;7.68;3.85;;;16.90;99.90;;;15.70;87.57;100260.03;5044690;28;20111;-76
2021/08/16 00:57:06;;;;;;;7.57;3.90;;;16.80;99.90;;;15.64;88.18;100263.13;5052321;28;20284;-76
2021/08/16 00:59:33;;;;;;;6.07;3.95;;;16.80;99.90;;;15.58;88.11;100266.22;5061274;28;20029;-76
2021/08/16 01:01:58;;;;;;;9.95;3.85;;;16.70;99.90;;;15.55;88.71;100283.25;5067883;28;20047;-76
2021/08/16 01:04:29;;;;;;;9.35;3.78;;;16.70;99.90;;;15.52;89.21;100288.75;5041109;28;20491;-76
2021/08/16 01:06:55;;;;;;;8.80;3.83;;;16.70;99.90;;;15.48;89.34;100275.84;5063737;28;20028;-76
2021/08/16 01:09:22;;;;;;;36.65;4.32;;;16.60;99.90;;;15.46;89.18;100269.78;5067870;28;20031;-76
2021/08/16 01:11:49;;;;;;;7.55;4.00;;;16.60;99.90;;;15.45;89.47;100262.81;5050512;28;20024;-76
2021/08/16 01:14:16;;;;;;;10.57;4.38;;;16.60;99.90;;;15.45;89.98;100255.69;5066107;28;20501;-76
2021/08/16 01:16:43;;;;;;;10.90;4.10;;;16.60;99.90;;;15.44;89.90;100253.13;5070167;28;20048;-76
2021/08/16 01:19:10;;;;;;;10.48;4.72;;;16.60;99.90;;;15.41;90.05;100242.78;5069212;28;20475;-76
2021/08/16 01:21:36;;;;;;;6.55;3.65;;;16.50;99.90;;;15.38;90.04;100247.34;5068991;28;20036;-76
2021/08/16 01:24:02;;;;;;;9.13;3.92;;;16.60;99.90;;;15.37;90.12;100240.31;5068748;28;20535;-76
2021/08/16 01:26:35;;;;;;;10.05;4.30;;;16.50;99.90;;;15.34;90.16;100237.06;5054585;28;20028;-76
2021/08/16 01:29:34;;;;;;;11.60;3.85;;;16.50;99.90;;;15.31;90.26;100232.84;5072048;28;20021;-76
2021/08/16 01:32:02;;;;;;;13.23;4.10;;;16.40;99.90;;;15.29;90.64;100237.44;5052835;28;20036;-76
2021/08/16 01:34:30;;;;;;;8.38;4.40;;;16.40;99.90;;;15.30;90.72;100249.72;5046714;28;20026;-76
2021/08/16 01:36:57;;;;;;;7.65;3.90;;;16.50;99.90;;;15.34;90.99;100248.53;5055949;28;22489;-76
2021/08/16 01:39:24;;;;;;;9.20;4.22;;;16.50;99.90;;;15.37;90.89;100236.84;5073195;28;20030;-76
2021/08/16 01:41:51;;;;;;;8.25;3.70;;;16.50;99.90;;;15.37;90.99;100248.28;5071845;28;20028;-76
2021/08/16 01:44:20;;;;;;;11.18;4.53;;;16.60;99.90;;;15.38;91.10;100247.34;5070765;28;20505;-76
2021/08/16 01:46:46;;;;;;;9.90;4.65;;;16.60;99.90;;;15.37;91.34;100248.28;5054160;28;20464;-76
2021/08/16 01:49:13;;;;;;;7.25;4.15;;;16.60;99.90;;;15.37;90.93;100252.75;5073216;28;20115;-76
2021/08/16 01:51:40;;;;;;;12.05;5.03;;;16.60;99.90;;;15.41;91.00;100245.44;5071062;28;20044;-76
2021/08/16 01:54:10;;;;;;;12.02;4.40;;;16.60;99.90;;;15.42;90.93;100233.84;5056444;28;20024;-76
2021/08/16 01:56:38;;;;;;;7.82;4.22;;;16.60;99.90;;;15.45;90.85;100238.94;5062453;28;20085;-76
2021/08/16 01:59:05;;;;;;;10.05;4.22;;;16.60;99.90;;;15.47;91.07;100240.50;5072409;28;20017;-76
2021/08/16 02:01:31;;;;;;;13.30;4.30;;;16.60;99.90;;;15.55;90.68;100248.75;5071073;28;20051;-76
2021/08/16 02:03:57;;;;;;;7.93;4.07;;;16.70;99.90;;;15.66;89.72;100247.94;5069403;28;20039;-76
2021/08/16 02:06:23;;;;;;;12.15;4.30;;;16.90;99.90;;;15.77;88.58;100249.81;5073276;28;20024;-76
2021/08/16 02:08:49;;;;;;;7.97;3.85;;;16.90;99.90;;;15.88;87.97;100254.31;5070512;28;20032;-76
2021/08/16 02:11:16;;;;;;;8.32;4.25;;;17.00;99.90;;;15.94;87.80;100251.19;5055560;28;20416;-76
2021/08/16 02:13:42;;;;;;;10.32;4.57;;;17.10;99.90;;;15.98;87.52;100255.28;5071456;28;20122;-76
2021/08/16 02:16:08;;;;;;;8.90;4.00;;;17.00;99.90;;;15.92;87.75;100253.09;5071039;28;20396;-76
2021/08/16 02:18:34;;;;;;;13.15;4.68;;;17.00;99.90;;;15.87;88.54;100244.63;5054338;28;20028;-76
2021/08/16 02:21:00;;;;;;;14.40;5.63;;;17.00;99.90;;;15.85;89.07;100249.22;5054623;28;20024;-76
2021/08/16 02:23:26;;;;;;;10.07;4.63;;;17.00;99.90;;;15.86;88.65;100246.44;5071570;28;20059;-76
2021/08/16 02:25:52;;;;;;;9.25;4.78;;;17.00;99.90;;;15.88;88.74;100241.88;5070974;28;20016;-76
2021/08/16 02:28:18;;;;;;;13.63;4.60;;;17.00;99.90;;;15.84;89.43;100224.47;5072559;28;20519;-75
2021/08/16 02:30:47;;;;;;;10.20;4.75;;;17.00;99.90;;;15.84;89.34;100229.78;5070153;28;20529;-76
2021/08/16 02:33:15;;;;;;;8.00;4.15;;;17.00;99.90;;;15.85;89.80;100227.97;5072153;28;20376;-76
2021/08/16 02:35:43;;;;;;;6.70;4.30;;;17.00;99.90;;;15.81;90.13;100223.84;5068020;28;20024;-76
2021/08/16 02:38:12;;;;;;;9.07;4.88;;;16.90;99.90;;;15.69;92.08;100237.06;5053575;28;20033;-76
2021/08/16 02:40:39;;;;;;;9.65;4.70;;;16.70;99.90;;;15.58;93.03;100308.69;5072254;28;22809;-75
2021/08/16 02:43:05;;;;;;;11.77;4.78;;;16.60;99.90;;;15.52;93.61;100320.59;5069782;28;20036;-76
2021/08/16 02:45:32;;;;;;;11.10;4.50;;;16.60;99.90;;;15.52;93.79;100319.75;5062551;28;20055;-76
2021/08/16 02:47:58;;;;;;;11.95;5.68;;;16.60;99.90;;;15.49;95.69;100317.34;5070131;28;20070;-75
2021/08/16 02:50:25;;;;;;;15.02;5.30;;;16.50;99.90;;;15.44;97.83;100317.66;5072353;28;20583;-76
2021/08/16 02:52:54;;;;;;;13.70;5.65;;;16.50;99.90;;;15.34;99.86;100349.31;5069756;28;20468;-76
2021/08/16 02:55:20;;;;;;;13.00;5.55;;;16.40;99.90;;;15.20;99.95;100365.38;5070961;28;20020;-75
2021/08/16 02:57:45;;;;;;;11.88;5.15;;;16.30;99.90;;;15.12;100.00;100370.41;5088389;28;20032;-76
2021/08/16 03:00:13;;;;;;;12.40;5.85;;;16.20;99.90;;;15.12;100.00;100375.72;5052600;28;20391;-76
2021/08/16 03:02:40;;;;;;;12.95;6.07;;;16.20;99.90;;;15.12;100.00;100357.16;5046671;28;20054;-77
2021/08/16 03:05:08;;;;;;;13.73;6.05;;;16.20;99.90;;;15.11;100.00;100331.56;5056547;28;20028;-78
2021/08/16 03:07:33;;;;;;;10.20;5.68;;;16.20;99.90;;;14.89;100.00;100255.41;5074352;28;20032;-77
2021/08/16 03:09:59;;;;;;;11.32;6.43;;;16.10;99.90;;;14.88;100.00;100270.47;5073837;28;20032;-77
2021/08/16 03:12:25;;;;;;;11.02;6.30;;;16.10;99.90;;;14.88;100.00;100266.94;5064412;28;20964;-77
2021/08/16 03:14:51;;;;;;;18.77;7.18;;;16.10;99.90;;;14.93;100.00;100270.97;5071022;28;20036;-76
2021/08/16 03:17:17;;;;;;;24.45;7.03;;;16.10;99.90;;;14.90;100.00;100263.25;5048271;28;20032;-77
2021/08/16 03:19:43;;;;;;;14.25;6.90;;;16.10;99.90;;;14.93;100.00;100230.38;5085346;28;20025;-77
2021/08/16 03:22:09;;;;;;;10.02;5.80;;;16.10;99.90;;;14.88;100.00;100193.59;5073242;28;20067;-76
2021/08/16 03:24:35;;;;;;;11.18;6.43;;;16.10;99.90;;;14.89;100.00;100205.03;5069538;28;20020;-76
2021/08/16 03:27:01;;;;;;;14.82;7.20;;;16.10;99.90;;;14.87;100.00;100218.38;5054060;28;20039;-76
2021/08/16 03:29:27;;;;;;;14.45;6.70;;;16.00;99.90;;;14.85;100.00;100217.66;5070051;28;20247;-76
2021/08/16 03:31:53;;;;;;;15.23;7.45;;;16.00;99.90;;;14.89;100.00;100200.56;5069724;28;20490;-76
2021/08/16 03:34:19;;;;;;;14.75;7.28;;;16.10;99.90;;;14.88;100.00;100204.19;5069311;28;20028;-76
2021/08/16 03:36:45;;;;;;;12.48;6.60;;;16.10;99.90;;;14.91;100.00;100219.84;5070849;28;20024;-76
2021/08/16 03:39:11;;;;;;;18.77;8.55;;;16.10;99.90;;;14.89;100.00;100232.38;5071652;28;20483;-76
2021/08/16 03:41:37;;;;;;;14.18;8.05;;;16.10;99.90;;;14.91;100.00;100246.38;5050752;28;20020;-76
2021/08/16 03:44:04;;;;;;;17.45;8.00;;;16.10;99.90;;;14.96;100.00;100299.06;5071378;28;20866;-76
2021/08/16 03:46:30;;;;;;;15.10;7.45;;;16.10;99.90;;;14.93;100.00;100337.25;5064371;28;23763;-77
2021/08/16 03:48:56;;;;;;;20.58;8.98;;;16.00;99.90;;;14.88;100.00;100426.84;5068097;28;20031;-78
2021/08/16 03:51:26;;;;;;;18.88;7.68;;;16.00;99.90;;;14.93;100.00;100490.16;5028532;28;20017;-79
2021/08/16 03:53:52;;;;;;;15.88;6.82;;;16.10;99.90;;;15.06;100.00;100519.31;4989087;28;20588;-79
2021/08/16 03:56:18;;;;;;;14.15;5.50;;;16.10;99.90;;;15.04;100.00;100611.38;5033828;28;20103;-80
2021/08/16 03:58:45;;;;;;;16.63;6.00;;;16.10;99.90;;;15.06;100.00;100620.94;5022557;28;20047;-78
2021/08/16 04:01:12;;;;;;;11.68;6.10;;;16.20;99.90;;;15.06;100.00;100633.34;5075823;28;20028;-77
2021/08/16 04:03:40;;;;;;;17.70;6.50;;;16.10;99.90;;;15.04;100.00;100728.91;5071460;28;20511;-77
2021/08/16 04:06:06;;;;;;;14.95;6.95;;;16.20;99.90;;;15.03;100.00;100742.25;5069394;28;20036;-76
2021/08/16 04:08:33;;;;;;;14.38;6.07;;;16.10;99.90;;;15.03;100.00;100787.31;5070606;28;20031;-76
2021/08/16 04:11:00;;;;;;;15.77;7.32;;;16.20;99.90;;;15.06;100.00;100818.97;5065860;28;20111;-78
2021/08/16 04:13:26;;;;;;;16.60;6.47;;;16.10;99.90;;;15.04;100.00;100847.38;5062522;28;20121;-80
2021/08/16 04:15:55;;;;;;;13.43;6.30;;;16.10;99.90;;;15.00;100.00;100867.09;5032352;28;20046;-79
2021/08/16 04:18:21;;;;;;;14.65;6.47;;;16.10;99.90;;;14.98;100.00;100885.72;5045549;28;20035;-79
2021/08/16 04:20:47;;;;;;;14.10;5.75;;;16.10;99.90;;;14.96;100.00;100898.22;5057716;28;20100;-80
2021/08/16 04:23:13;;;;;;;11.90;6.18;;;16.10;99.90;;;14.96;100.00;100911.50;5023923;28;20223;-79
2021/08/16 04:25:39;;;;;;;21.20;6.82;;;16.10;99.90;;;14.92;100.00;100947.97;5016072;28;20016;-80
2021/08/16 04:28:05;;;;;;;11.13;5.90;;;16.10;99.90;;;14.89;100.00;100949.94;5048587;28;20111;-78
2021/08/16 04:30:31;;;;;;;14.52;5.47;;;16.10;99.90;;;14.93;100.00;100997.38;5041450;28;20047;-78
2021/08/16 04:32:57;;;;;;;12.43;5.32;;;16.10;99.90;;;14.94;100.00;101016.78;5067572;28;20028;-78
2021/08/16 04:35:23;;;;;;;12.13;5.40;;;16.10;99.90;;;14.93;100.00;101050.41;5049475;28;20432;-77
2021/08/16 04:37:51;;;;;;;12.25;5.53;;;16.00;99.90;;;14.89;100.00;101091.31;5065313;28;20104;-77
2021/08/16 04:40:17;;;;;;;9.20;5.10;;;16.00;99.90;;;14.88;100.00;101155.00;5062875;28;20036;-77
2021/08/16 04:42:43;;;;;;;9.45;5.43;;;16.00;99.90;;;14.86;100.00;101184.28;5071575;28;20035;-77
2021/08/16 04:45:11;;;;;;;12.07;5.57;;;15.90;99.90;;;14.83;100.00;101261.31;5072357;28;20032;-77
2021/08/16 04:47:42;;;;;;;12.68;5.75;;;16.00;99.90;;;14.81;100.00;101305.63;5062898;28;20048;-76
2021/08/16 04:50:09;;;;;;;12.52;5.35;;;15.90;99.90;;;14.77;100.00;101326.16;5048918;28;20044;-77
2021/08/16 04:52:35;;;;;;;10.63;4.75;;;15.90;99.90;;;14.72;100.00;101341.44;5047879;28;20067;-78
2021/08/16 04:55:01;;;;;;;13.85;5.03;;;15.80;99.90;;;14.69;100.00;101352.22;5064362;28;20021;-78
2021/08/16 04:57:38;;;;;;;11.20;4.57;;;15.80;99.90;;;14.67;100.00;101366.50;5041542;28;20032;-78
2021/08/16 05:00:08;;;;;;;9.43;4.35;;;15.80;99.90;;;14.64;100.00;101332.19;5028677;28;20420;-78
2021/08/16 05:02:35;;;;;;;10.10;4.30;;;15.70;99.90;;;14.61;100.00;101369.47;5059814;28;20487;-80
2021/08/16 05:05:16;;;;;;;10.18;4.07;;;15.70;99.90;;;14.62;100.00;101357.94;5014579;28;20110;-81
2021/08/16 05:07:54;;;;;;;11.75;4.35;;;15.80;99.90;;;14.62;100.00;101304.91;5021715;28;20111;-81
2021/08/16 05:10:24;;;;;;;6.10;3.92;;;15.80;99.90;;;14.61;100.00;101335.88;5037695;28;20436;-81
2021/08/16 05:12:53;;;;;;;7.72;3.97;;;15.80;99.90;;;14.70;100.00;101350.44;5051993;28;20414;-80
2021/08/16 05:15:20;;;;;;;9.05;3.60;;;16.80;99.90;;;14.71;100.00;101337.09;5027772;28;20025;-79
2021/08/16 05:17:54;;;;;;;8.98;4.05;;;15.90;99.90;;;14.80;100.00;101311.03;5051664;28;20024;-78
2021/08/16 05:20:21;;;;;;;6.35;3.60;;;15.90;99.90;;;14.80;100.00;101343.69;5080980;28;20032;-78
2021/08/16 05:22:51;;;;;;;8.80;3.72;;;16.00;99.90;;;14.83;100.00;101414.25;5046770;28;20044;-78
2021/08/16 05:25:19;;;;;;;9.05;4.35;;;15.90;99.90;;;14.83;100.00;101403.63;5028552;28;20444;-78
2021/08/16 05:27:46;;;;;;;6.43;3.72;;;15.90;99.90;;;14.78;100.00;101454.25;5078130;28;20023;-78
2021/08/16 05:30:13;;;;;;;8.05;4.05;;;15.90;99.90;;;14.76;100.00;101448.19;5059959;28;20034;-77
2021/08/16 05:32:41;;;;;;;7.13;3.67;;;15.80;99.90;;;14.77;100.00;101457.84;5061266;28;20040;-78
2021/08/16 05:35:09;;;;;;;7.60;3.75;;;15.90;99.90;;;14.78;100.00;101470.16;5060607;28;20032;-77
2021/08/16 05:37:35;;;;;;;9.13;4.38;;;15.90;99.90;;;14.81;100.00;101477.09;5076063;28;20028;-77
2021/08/16 05:40:02;;;;;;;7.60;4.05;;;15.90;99.90;;;14.91;100.00;101566.69;5075588;28;20031;-76
2021/08/16 05:42:28;;;;;;;7.93;4.60;;;16.00;99.90;;;15.00;100.00;101572.47;5069384;28;20081;-77
2021/08/16 05:44:54;;;;;;;9.27;4.40;;;16.10;99.90;;;15.09;100.00;101575.47;5083844;28;20060;-77
2021/08/16 05:47:20;;;;;;;10.65;3.95;;;16.20;99.90;;;15.18;100.00;101587.41;5077999;28;20467;-77
2021/08/16 05:49:46;;;;;;;5.43;3.65;;;16.30;99.90;;;15.25;100.00;101607.41;5051350;28;20043;-77
2021/08/16 05:52:12;;;;;;;6.32;3.35;;;16.30;99.90;;;15.28;100.00;101598.41;5063563;28;20096;-76
2021/08/16 05:54:38;;;;;;;8.05;3.42;;;16.40;99.90;;;15.38;100.00;101591.69;5059605;28;20604;-77
2021/08/16 05:57:04;;;;;;;6.63;3.47;;;16.40;99.90;;;15.41;100.00;101607.44;5058341;28;20013;-77
2021/08/16 05:59:30;;;;;;;6.95;3.25;;;16.40;99.90;;;15.43;100.00;101600.25;5065199;28;20015;-76
2021/08/16 06:01:56;;;;;;;6.72;3.33;;;16.50;99.90;;;15.46;100.00;101538.19;5073620;28;20072;-77
2021/08/16 06:04:21;;;;;;;6.40;2.92;;;16.50;99.90;;;15.47;100.00;101563.78;5073133;28;20051;-77
2021/08/16 06:06:48;;;;;;;5.88;2.70;;;16.50;99.90;;;15.54;100.00;101566.03;5055953;28;20032;-75
2021/08/16 06:09:13;;;;;;;6.97;3.10;;;16.60;99.90;;;15.72;100.00;101465.09;5075281;28;20031;-77
2021/08/16 06:11:39;;;;;;;7.47;3.38;;;16.80;99.90;;;15.87;100.00;101452.75;5056527;28;20422;-77
2021/08/16 06:14:05;;;;;;;6.43;3.22;;;16.90;99.90;;;16.14;100.00;101472.41;5066992;28;22218;-77
2021/08/16 06:16:31;;;;;;;6.28;3.00;;;17.10;99.90;;;16.19;99.31;101449.09;5055550;28;20039;-77
2021/08/16 06:18:57;;;;;;;6.82;2.95;;;17.20;99.90;;;16.25;99.56;101444.38;5072422;28;20104;-76
2021/08/16 06:21:23;;;;;;;6.45;2.75;;;17.20;99.90;;;16.36;99.52;101452.56;5087941;28;20422;-76
2021/08/16 06:23:50;;;;;;;6.43;2.80;;;17.30;99.90;;;16.48;97.89;101449.19;5072272;28;20043;-76
2021/08/16 06:26:17;;;;;;;6.57;2.60;;;17.40;99.90;;;16.50;98.11;101443.75;5072011;28;20040;-76
2021/08/16 06:28:43;;;;;;;6.47;2.88;;;17.40;99.90;;;16.45;98.55;101428.06;5071152;28;20039;-76
2021/08/16 06:31:09;;;;;;;4.85;2.35;;;17.30;99.90;;;16.35;98.75;101417.16;5072930;28;20028;-76
2021/08/16 06:33:40;;;;;;;7.68;2.95;;;17.30;99.90;;;16.30;98.73;101479.50;5052527;28;20456;-76
2021/08/16 06:36:06;;;;;;;5.20;2.67;;;17.20;99.90;;;16.23;99.21;101427.66;5074005;28;20028;-76
2021/08/16 06:38:33;;;;;;;6.05;3.30;;;17.20;99.90;;;16.28;99.43;101436.19;5053925;28;20028;-76
2021/08/16 06:41:01;;;;;;;6.47;2.80;;;17.40;99.90;;;16.73;98.38;101453.84;5071514;28;22669;-76
2021/08/16 06:43:30;;;;;;;9.15;2.92;;;18.00;99.90;;;17.91;92.80;101567.28;5070573;28;20039;-76
2021/08/16 06:45:56;;;;;;;5.55;2.65;;;18.90;99.90;;;19.06;86.19;101608.53;5071636;28;20043;-76
2021/08/16 06:48:22;;;;;;;4.38;2.28;;;19.60;99.90;;;19.42;84.29;101606.94;5052224;28;20027;-76
2021/08/16 06:50:48;;;;;;;9.48;2.45;;;20.10;99.90;;;20.06;79.99;101633.63;5070009;28;20032;-76
2021/08/16 06:53:15;;;;;;;8.35;2.75;;;20.30;99.90;;;19.96;78.23;101567.56;5070583;28;20024;-76
2021/08/16 06:55:45;;;;;;;5.45;2.40;;;20.00;99.90;;;19.36;80.77;101481.03;5071134;28;20055;-75
2021/08/16 06:58:11;;;;;;;6.32;2.28;;;19.80;99.90;;;19.24;82.39;101571.72;5071920;28;20080;-76
2021/08/16 07:00:41;;;;;;;4.35;2.35;;;19.60;99.90;;;18.90;83.10;101485.13;5052679;28;20457;-76
2021/08/16 07:03:07;;;;;;;4.60;2.40;;;19.40;99.90;;;18.71;84.91;101444.66;5069481;28;20039;-75
2021/08/16 07:05:33;;;;;;;4.50;2.03;;;19.30;99.90;;;18.69;84.94;101447.41;5069224;28;20081;-75
2021/08/16 07:07:59;;;;;;;4.63;2.58;;;19.20;99.90;;;18.65;84.80;101420.09;5070237;28;20027;-76
2021/08/16 07:10:25;;;;;;;5.15;2.55;;;19.20;99.90;;;18.61;85.74;101391.91;5068800;28;20085;-76
2021/08/16 07:12:51;;;;;;;9.43;2.65;;;19.50;99.90;;;19.36;83.50;101481.84;5071779;28;20069;-76
2021/08/16 07:15:17;;;;;;;3.42;2.05;;;20.10;99.90;;;19.85;80.22;101502.38;5052451;28;20920;-76
2021/08/16 07:17:43;;;;;;;6.63;2.60;;;20.40;99.90;;;20.24;79.26;101518.25;5070594;28;20051;-76
2021/08/16 07:20:09;;;;;;;6.45;2.65;;;20.40;99.90;;;19.77;81.09;101440.63;5069807;28;20107;-76
2021/08/16 07:22:37;;;;;;;4.63;2.20;;;20.20;99.90;;;19.67;80.79;101432.41;5068439;28;20491;-76
2021/08/16 07:25:07;;;;;;;4.88;2.33;;;20.20;99.90;;;19.71;80.34;101429.53;5072959;28;20126;-76
2021/08/16 07:27:33;;;;;;;4.10;2.42;;;20.10;99.90;;;19.61;80.48;101415.97;5069549;28;20036;-76
2021/08/16 07:29:59;;;;;;;4.75;2.33;;;20.20;99.90;;;20.04;78.89;101460.91;5070326;28;20072;-76
2021/08/16 07:32:25;;;;;;;4.35;2.30;;;21.00;99.90;;;21.58;73.11;101602.56;5078651;28;20459;-76
2021/08/16 07:34:51;;;;;;;7.05;2.55;;;22.00;99.90;;;22.47;69.82;101664.28;5070201;28;20026;-76
2021/08/16 07:37:17;;;;;;;7.78;3.00;;;22.50;99.90;;;22.92;70.12;101519.94;5053549;28;20040;-76
2021/08/16 07:39:42;;;;;;;6.72;2.40;;;22.80;99.90;;;23.05;67.32;101460.69;5068897;28;20178;-76
2021/08/16 07:42:09;;;;;;;7.18;2.95;;;22.50;99.90;;;22.61;69.14;101392.88;5054290;28;20039;-76
2021/08/16 07:44:35;;;;;;;5.47;2.60;;;22.30;99.90;;;21.94;69.85;101327.09;5068636;28;20111;-76
2021/08/16 07:47:02;;;;;;;9.93;2.90;;;21.90;99.90;;;21.30;73.02;101259.19;5070111;28;20043;-76
2021/08/16 07:49:30;;;;;;;9.07;3.20;;;21.50;99.90;;;21.43;73.81;101341.25;5050011;28;20025;-76
2021/08/16 07:51:58;;;;;;;6.30;3.05;;;21.60;99.90;;;21.61;73.96;101352.25;5051303;28;20108;-75
2021/08/16 07:54:24;;;;;;;8.05;2.95;;;22.20;99.90;;;22.96;69.69;101499.06;5053347;28;20060;-75
2021/08/16 07:56:51;;;;;;;4.07;2.40;;;23.10;99.90;;;23.70;65.57;101481.81;5069384;28;23047;-75
2021/08/16 07:59:18;;;;;;;8.32;3.00;;;23.10;99.90;;;22.95;66.52;101371.13;5073209;28;20042;-76
2021/08/16 08:01:45;;;;;;;8.48;3.15;;;23.00;99.90;;;23.09;68.07;101376.16;5050637;28;20038;-76
2021/08/16 08:04:12;;;;;;;11.25;3.08;;;23.10;99.90;;;23.15;65.61;101355.94;5053674;28;20525;-76
2021/08/16 08:06:38;;;;;;;5.70;2.70;;;23.00;99.90;;;22.98;66.78;101333.28;5043417;28;20074;-75
2021/08/16 08:09:04;;;;;;;7.03;2.85;;;23.00;99.90;;;22.86;67.57;101310.19;5053391;28;20043;-75
2021/08/16 08:11:31;;;;;;;9.32;3.75;;;22.70;99.90;;;22.42;70.07;101258.63;5051275;28;20017;-76
2021/08/16 08:13:57;;;;;;;5.18;3.03;;;22.60;99.90;;;22.20;70.84;101236.38;5017768;28;20131;-76
2021/08/16 08:16:23;;;;;;;9.95;3.17;;;22.00;99.90;;;21.39;73.79;101157.59;5004405;28;20014;-76
2021/08/16 08:18:48;;;;;;;9.50;4.20;;;21.60;99.90;;;20.95;76.01;101122.91;5014174;28;20023;-75
2021/08/16 08:21:16;;;;;;;5.03;2.40;;;21.50;99.90;;;21.15;75.77;101156.03;5009874;28;20199;-75
2021/08/16 08:23:42;;;;;;;7.85;3.30;;;21.60;99.90;;;21.34;75.62;101181.22;5029048;28;20414;-75
2021/08/16 08:26:08;;;;;;;7.32;2.88;;;21.80;99.90;;;21.58;74.39;101210.50;5013346;28;20025;-75
2021/08/16 08:28:34;;;;;;;4.18;2.47;;;22.00;99.90;;;21.58;71.13;101171.16;5028983;28;20500;-76
2021/08/16 08:31:01;;;;;;;5.40;2.50;;;21.90;99.90;;;21.23;71.15;101123.22;5044072;28;20013;-75
2021/08/16 08:33:27;;;;;;;5.25;2.65;;;21.80;99.90;;;21.43;70.95;101157.25;5029398;28;20320;-76
2021/08/16 08:35:53;;;;;;;4.10;2.47;;;21.80;99.90;;;21.63;69.75;101181.47;5017597;28;20033;-75
2021/08/16 08:38:19;;;;;;;9.88;2.55;;;22.00;99.90;;;21.40;70.43;101149.41;5017129;28;20029;-76
2021/08/16 08:40:46;;;;;;;6.10;2.80;;;21.60;99.90;;;20.80;73.00;101066.19;5032369;28;20029;-75
2021/08/16 08:43:15;;;;;;;5.63;2.60;;;21.10;99.90;;;20.07;76.13;101011.59;5034047;28;21112;-75
2021/08/16 08:45:44;;;;;;;6.28;2.75;;;20.60;99.90;;;19.47;77.51;100992.38;5031982;28;20037;-75
2021/08/16 08:48:12;;;;;;;6.28;2.92;;;20.20;99.90;;;19.27;80.59;100988.63;5034268;28;20107;-75
2021/08/16 08:50:40;;;;;;;9.38;3.50;;;20.00;99.90;;;19.01;80.71;100988.84;5031223;28;20076;-74
2021/08/16 08:53:06;;;;;;;4.78;2.97;;;19.90;99.90;;;18.93;81.72;100985.06;5027450;28;20029;-75
2021/08/16 08:55:32;;;;;;;10.30;3.00;;;19.70;99.90;;;18.83;82.76;100969.78;4997633;28;20033;-74
2021/08/16 08:58:01;;;;;;;8.02;3.15;;;19.70;99.90;;;18.80;82.34;100975.34;5019171;28;20029;-76
2021/08/16 09:00:34;;;;;;;7.15;3.10;;;19.50;99.90;;;18.59;83.46;100961.81;5029637;28;20044;-75
2021/08/16 09:03:11;;;;;;;13.68;3.35;;;19.40;99.90;;;18.54;83.25;100968.47;4992057;28;20037;-76
2021/08/16 09:06:09;;;;;;;7.95;3.42;;;19.70;99.90;;;19.27;81.74;101052.69;4994013;28;20040;-75
2021/08/16 09:08:39;;;;;;;10.07;3.28;;;20.30;99.90;;;19.59;77.69;101074.19;5000221;28;20052;-76
2021/08/16 09:11:50;;;;;;;7.45;3.30;;;20.30;99.90;;;19.30;77.69;101025.75;4973105;28;20067;-75
2021/08/16 09:15:03;;;;;;;7.72;3.05;;;20.20;99.90;;;19.47;79.04;101056.47;4989866;28;20032;-76
2021/08/16 09:18:12;;;;;;;7.03;3.17;;;20.40;99.90;;;19.90;78.32;101111.84;4986412;28;20040;-76
2021/08/16 09:21:23;;;;;;;11.25;4.13;;;20.80;99.90;;;20.36;77.06;101129.53;4988859;28;20501;-76
2021/08/16 09:24:38;;;;;;;7.82;3.30;;;21.40;99.90;;;20.87;74.31;101150.31;4987313;28;20061;-75
2021/08/16 09:27:11;;;;;;;10.88;3.65;;;21.40;99.90;;;20.75;73.98;101121.03;4996790;28;20636;-76
2021/08/16 09:29:53;;;;;;;8.52;3.33;;;21.20;99.90;;;20.33;75.96;101075.47;5043179;28;20079;-75
2021/08/16 09:33:02;;;;;;;14.05;3.95;;;20.70;99.90;;;19.72;75.72;101026.03;4978267;28;20033;-75
2021/08/16 09:36:32;;;;;;;9.98;3.95;;;20.40;99.90;;;19.50;78.21;100991.28;4988568;28;20044;-76
2021/08/16 09:40:19;;;;;;;9.30;3.88;;;20.20;99.90;;;19.21;78.79;100957.91;4986351;28;20099;-76
2021/08/16 09:43:36;;;;;;;6.65;3.72;;;20.00;99.90;;;18.98;78.69;100949.03;5025421;28;20064;-76
2021/08/16 09:46:48;;;;;;;11.23;4.05;;;19.80;99.90;;;18.92;78.99;100952.22;4989855;28;20040;-76
2021/08/16 09:49:23;;;;;;;9.95;3.60;;;19.70;99.90;;;18.91;79.72;100955.84;4992133;28;20033;-76
2021/08/16 09:52:29;;;;;;;7.93;3.65;;;19.70;99.90;;;18.77;78.23;100948.03;4989956;28;20029;-76
2021/08/16 09:55:53;;;;;;;11.32;3.88;;;19.50;99.90;;;18.47;80.41;100913.94;4968279;28;20045;-76
2021/08/16 09:58:25;;;;;;;11.95;3.90;;;19.30;99.90;;;18.37;82.42;100903.94;5005373;28;20027;-76
2021/08/16 10:01:19;;;;;;;13.32;3.95;;;19.30;99.90;;;18.51;83.59;100926.91;4989561;28;20033;-75
2021/08/16 10:04:42;;;;;;;6.80;3.65;;;19.60;99.90;;;19.01;80.40;100978.16;4985656;28;20048;-76
2021/08/16 10:07:34;;;;;;;7.28;3.72;;;20.20;99.90;;;19.63;77.87;101029.38;4984463;28;20029;-76
2021/08/16 10:11:01;;;;;;;13.88;3.47;;;20.60;99.90;;;20.02;77.07;101053.88;4976155;28;20041;-76
2021/08/16 10:14:31;;;;;;;12.63;3.53;;;20.80;99.90;;;20.28;74.84;101079.34;4987802;28;21485;-76
2021/08/16 10:17:50;;;;;;;10.00;3.28;;;21.00;99.90;;;20.31;73.62;101064.03;4989215;28;20087;-75
2021/08/16 10:20:53;;;;;;;10.52;3.60;;;21.10;99.90;;;20.47;72.65;101086.72;4989205;28;20063;-76
2021/08/16 10:24:04;;;;;;;11.10;3.75;;;21.10;99.90;;;20.36;71.91;101056.47;4983969;28;20069;-75